Time;durP1;ratioP1;P1;durP2;ratioP2;P2;SDS_P1;SDS_P2;PMS_P1;PMS_P2;Temp;Humidity;BMP_temperature;BMP_pressure;BME280_temperature;BME280_humidity;BME280_pressure;Samples;Min_cycle;Max_cycle;Signal;HPM_P1;HPM_P2
2023/11/17 00:01:42;;;;;;;41.03;30.70;;;2.90;99.90;;;;;;5030050;28;20461;-75
2023/11/17 00:04:09;;;;;;;46.47;32.22;;;2.90;99.90;;;;;;5024761;28;20029;-73
2023/11/17 00:06:36;;;;;;;36.42;28.95;;;3.00;99.90;;;;;;5019403;28;20399;-76
2023/11/17 00:09:05;;;;;;;46.20;31.58;;;3.00;99.90;;;;;;5034267;28;20114;-75
2023/11/17 00:11:34;;;;;;;43.63;31.70;;;2.90;99.90;;;;;;5013205;28;20037;-75
2023/11/17 00:14:02;;;;;;;41.67;31.10;;;2.90;99.90;;;;;;5034502;28;20053;-73
2023/11/17 00:16:29;;;;;;;40.47;29.67;;;2.90;99.90;;;;;;5008662;28;20373;-75
2023/11/17 00:18:56;;;;;;;35.83;28.90;;;2.90;99.90;;;;;;5024944;28;20041;-75
2023/11/17 00:21:23;;;;;;;33.10;29.52;;;2.90;99.90;;;;;;5025816;28;20045;-75
2023/11/17 00:23:50;;;;;;;41.85;30.92;;;2.80;99.90;;;;;;5031070;28;20045;-76
2023/11/17 00:26:17;;;;;;;37.75;30.73;;;2.70;99.90;;;;;;5027104;28;20108;-74
2023/11/17 00:28:44;;;;;;;37.00;31.20;;;2.70;99.90;;;;;;5031641;28;20067;-74
2023/11/17 00:31:13;;;;;;;41.97;31.88;;;2.60;99.90;;;;;;5025886;28;20041;-74
2023/11/17 00:33:41;;;;;;;39.75;32.92;;;2.60;99.90;;;;;;5027855;28;20049;-73
2023/11/17 00:36:09;;;;;;;45.53;32.97;;;2.60;99.90;;;;;;5027480;28;20614;-73
2023/11/17 00:38:36;;;;;;;40.25;32.30;;;2.50;99.90;;;;;;5033473;28;20047;-74
2023/11/17 00:41:04;;;;;;;38.28;31.48;;;2.40;99.90;;;;;;5029957;28;20045;-75
2023/11/17 00:43:44;;;;;;;38.72;31.55;;;2.40;99.90;;;;;;5016429;28;20047;-77
2023/11/17 00:46:11;;;;;;;38.15;29.80;;;2.30;99.90;;;;;;5033740;28;20038;-77
2023/11/17 00:48:39;;;;;;;37.92;30.67;;;2.40;99.90;;;;;;5056441;28;20052;-76
2023/11/17 00:51:07;;;;;;;39.47;29.48;;;2.50;99.90;;;;;;5013756;28;20041;-74
2023/11/17 00:53:34;;;;;;;39.83;29.77;;;2.50;99.90;;;;;;5030003;28;20159;-75
2023/11/17 00:56:04;;;;;;;42.75;29.20;;;2.40;99.90;;;;;;5013174;28;20049;-75
2023/11/17 00:58:31;;;;;;;31.10;27.58;;;2.30;99.90;;;;;;5046957;28;20596;-74
2023/11/17 01:00:58;;;;;;;34.88;29.05;;;2.30;99.90;;;;;;5032695;28;20570;-75
2023/11/17 01:03:26;;;;;;;41.78;28.80;;;2.40;99.90;;;;;;5009148;28;20226;-74
2023/11/17 01:05:53;;;;;;;33.92;27.58;;;2.40;99.90;;;;;;5020769;28;20048;-74
2023/11/17 01:08:19;;;;;;;30.38;27.13;;;2.30;99.90;;;;;;5030060;28;20044;-77
2023/11/17 01:10:46;;;;;;;31.70;27.33;;;2.30;99.90;;;;;;5028461;28;20038;-75
2023/11/17 01:13:13;;;;;;;29.75;26.55;;;2.30;99.90;;;;;;5027327;28;20516;-75
2023/11/17 01:15:40;;;;;;;31.58;26.98;;;2.30;99.90;;;;;;5028444;28;20113;-74
2023/11/17 01:18:08;;;;;;;32.50;26.58;;;2.20;99.90;;;;;;5018707;28;20052;-74
2023/11/17 01:20:36;;;;;;;34.17;27.52;;;2.20;99.90;;;;;;5016727;28;20041;-75
2023/11/17 01:23:03;;;;;;;29.23;26.17;;;2.20;99.90;;;;;;5011331;28;20632;-75
2023/11/17 01:25:32;;;;;;;28.67;25.65;;;2.10;99.90;;;;;;5030006;28;20118;-74
2023/11/17 01:28:03;;;;;;;29.13;25.48;;;2.10;99.90;;;;;;5016709;28;20071;-74
2023/11/17 01:30:31;;;;;;;31.02;26.95;;;2.00;99.90;;;;;;5049098;28;20050;-75
2023/11/17 01:32:58;;;;;;;32.60;27.98;;;2.00;99.90;;;;;;5029677;28;20053;-76
2023/11/17 01:35:27;;;;;;;39.47;29.08;;;2.00;99.90;;;;;;5027292;28;22633;-75
2023/11/17 01:37:57;;;;;;;37.00;30.50;;;2.00;99.90;;;;;;5014220;28;20569;-75
2023/11/17 01:40:24;;;;;;;42.25;29.70;;;2.00;99.90;;;;;;5028666;28;20048;-75
2023/11/17 01:42:51;;;;;;;41.20;29.70;;;2.00;99.90;;;;;;5029770;28;20045;-75
2023/11/17 01:45:18;;;;;;;42.08;31.13;;;2.10;99.90;;;;;;5026526;28;20034;-74
2023/11/17 01:47:46;;;;;;;45.20;31.38;;;2.00;99.90;;;;;;5027599;28;20059;-73
2023/11/17 01:50:14;;;;;;;47.42;32.38;;;2.10;99.90;;;;;;5031481;28;20068;-74
2023/11/17 01:52:46;;;;;;;52.67;33.70;;;2.00;99.90;;;;;;5031412;28;20779;-76
2023/11/17 01:55:15;;;;;;;46.10;33.15;;;2.10;99.90;;;;;;5031079;28;20694;-75
2023/11/17 01:57:45;;;;;;;63.08;35.40;;;2.00;99.90;;;;;;5033462;28;20041;-75
2023/11/17 02:00:16;;;;;;;51.25;34.63;;;2.00;99.90;;;;;;5024155;28;20045;-75
2023/11/17 02:02:45;;;;;;;55.00;35.15;;;2.00;99.90;;;;;;5029008;28;20041;-75
2023/11/17 02:05:15;;;;;;;53.47;33.10;;;2.00;99.90;;;;;;5035446;28;20041;-74
2023/11/17 02:07:53;;;;;;;56.08;33.90;;;2.00;99.90;;;;;;5034914;28;20163;-75
2023/11/17 02:10:20;;;;;;;51.47;33.92;;;2.00;99.90;;;;;;5032162;28;20124;-75
2023/11/17 02:12:59;;;;;;;56.45;35.42;;;2.00;99.90;;;;;;5037177;28;20056;-75
2023/11/17 02:15:33;;;;;;;56.28;35.35;;;2.00;99.90;;;;;;5031092;28;20061;-74
2023/11/17 02:18:04;;;;;;;58.33;36.65;;;2.10;99.90;;;;;;5021044;28;20045;-76
2023/11/17 02:20:34;;;;;;;60.67;38.42;;;2.00;99.90;;;;;;5029999;28;20046;-75
2023/11/17 02:23:10;;;;;;;73.43;40.67;;;2.00;99.90;;;;;;5021204;28;20041;-75
2023/11/17 02:26:03;;;;;;;83.05;42.45;;;2.10;99.90;;;;;;5035021;28;20049;-77
2023/11/17 02:28:58;;;;;;;82.45;44.03;;;2.10;99.90;;;;;;5030136;28;20825;-75
2023/11/17 02:31:35;;;;;;;113.40;47.08;;;2.20;99.90;;;;;;5030574;28;20044;-74
2023/11/17 02:34:06;;;;;;;90.50;44.38;;;2.20;99.90;;;;;;5031799;28;20137;-76
2023/11/17 02:36:34;;;;;;;105.28;47.38;;;2.20;99.90;;;;;;5028304;28;20049;-75
2023/11/17 02:39:46;;;;;;;103.28;48.65;;;2.30;99.90;;;;;;5032140;28;20439;-74
2023/11/17 02:41:57;;;;;;;118.93;50.92;;;2.30;99.90;;;;;;5021201;28;20570;-75
2023/11/17 02:44:29;;;;;;;111.30;50.83;;;2.40;99.90;;;;;;5025744;28;20045;-74
2023/11/17 02:47:00;;;;;;;98.65;48.67;;;2.40;99.90;;;;;;5029594;28;20130;-76
2023/11/17 02:53:28;;;;;;;111.07;48.85;;;2.60;99.90;;;;;;5029960;28;20099;-76
2023/11/17 02:55:57;;;;;;;120.00;52.63;;;2.70;99.90;;;;;;5011491;28;20191;-76
2023/11/17 02:58:26;;;;;;;106.25;52.58;;;2.70;99.90;;;;;;5024777;28;20044;-75
2023/11/17 03:00:53;;;;;;;114.20;51.17;;;2.70;99.90;;;;;;5026661;28;20045;-75
2023/11/17 03:03:23;;;;;;;106.70;52.03;;;2.80;99.90;;;;;;5047368;28;20045;-76
2023/11/17 03:06:00;;;;;;;105.47;52.83;;;2.70;99.90;;;;;;5013193;28;20144;-74
2023/11/17 03:08:27;;;;;;;107.03;52.53;;;2.80;99.90;;;;;;5017270;28;20560;-76
2023/11/17 03:11:00;;;;;;;120.70;56.17;;;2.80;99.90;;;;;;5023689;28;20052;-75
2023/11/17 03:13:28;;;;;;;116.43;54.97;;;2.80;99.90;;;;;;5026162;28;20476;-75
2023/11/17 03:15:55;;;;;;;112.03;54.58;;;2.90;99.90;;;;;;5025466;28;20053;-75
2023/11/17 03:18:26;;;;;;;105.88;50.10;;;2.90;99.90;;;;;;5047507;28;20063;-74
2023/11/17 03:20:56;;;;;;;105.05;52.17;;;2.90;99.90;;;;;;5030719;28;20802;-75
2023/11/17 03:23:23;;;;;;;107.70;52.08;;;2.90;99.90;;;;;;5025595;28;20068;-75
2023/11/17 03:25:52;;;;;;;105.85;51.72;;;2.90;99.90;;;;;;5023575;28;20095;-75
2023/11/17 03:28:19;;;;;;;112.93;52.92;;;3.00;99.90;;;;;;5028344;28;20760;-74
2023/11/17 03:30:46;;;;;;;114.15;52.70;;;3.00;99.90;;;;;;5033889;28;20067;-75
2023/11/17 03:33:13;;;;;;;132.80;58.55;;;3.00;99.90;;;;;;5023501;28;20507;-74
2023/11/17 03:35:40;;;;;;;111.90;53.50;;;3.10;99.90;;;;;;5015064;28;20048;-75
2023/11/17 03:38:08;;;;;;;133.15;56.17;;;3.10;99.90;;;;;;5011111;28;20758;-74
2023/11/17 03:40:36;;;;;;;142.00;59.78;;;3.10;99.90;;;;;;5008477;28;20099;-75
2023/11/17 03:43:03;;;;;;;148.23;57.80;;;3.20;99.90;;;;;;5024672;28;20695;-75
2023/11/17 03:45:30;;;;;;;195.38;63.45;;;3.20;99.90;;;;;;5025306;28;20036;-74
2023/11/17 03:47:57;;;;;;;132.23;54.97;;;3.10;99.90;;;;;;5030160;28;20221;-74
2023/11/17 03:50:25;;;;;;;141.38;54.55;;;3.20;99.90;;;;;;5025224;28;20044;-74
2023/11/17 03:52:53;;;;;;;129.95;52.55;;;3.20;99.90;;;;;;5027038;28;20087;-75
2023/11/17 03:55:20;;;;;;;141.18;53.20;;;3.20;99.90;;;;;;5028493;28;20630;-74
2023/11/17 03:57:48;;;;;;;144.52;57.30;;;3.20;99.90;;;;;;5016666;28;20041;-75
2023/11/17 04:00:15;;;;;;;133.55;53.13;;;3.20;99.90;;;;;;5010691;28;20059;-74
2023/11/17 04:02:42;;;;;;;138.60;54.40;;;3.20;99.90;;;;;;5028611;28;20503;-74
2023/11/17 04:05:13;;;;;;;126.85;50.17;;;3.20;99.90;;;;;;5033242;28;20061;-76
2023/11/17 04:07:42;;;;;;;134.70;52.10;;;3.20;99.90;;;;;;5033593;28;20107;-77
2023/11/17 04:10:10;;;;;;;153.68;57.03;;;3.20;99.90;;;;;;5030660;28;20555;-74
2023/11/17 04:12:37;;;;;;;199.15;61.33;;;3.20;99.90;;;;;;5024731;28;20180;-75
2023/11/17 04:15:04;;;;;;;136.20;54.40;;;3.10;99.90;;;;;;5028805;28;20040;-74
2023/11/17 04:17:36;;;;;;;157.15;56.22;;;3.20;99.90;;;;;;5007541;28;20057;-75
2023/11/17 04:20:04;;;;;;;127.55;52.78;;;3.20;99.90;;;;;;5021181;28;20042;-74
2023/11/17 04:22:31;;;;;;;127.45;52.05;;;3.20;99.90;;;;;;5022905;28;20053;-74
2023/11/17 04:24:57;;;;;;;137.55;53.75;;;3.20;99.90;;;;;;5029333;28;20048;-73
2023/11/17 04:27:28;;;;;;;116.90;49.67;;;3.30;99.90;;;;;;5029334;28;20045;-75
2023/11/17 04:29:55;;;;;;;103.20;48.88;;;3.30;99.90;;;;;;5021932;28;20037;-75
2023/11/17 04:32:22;;;;;;;104.13;48.88;;;3.20;99.90;;;;;;5029086;28;20041;-75
2023/11/17 04:34:49;;;;;;;113.93;50.17;;;3.30;99.90;;;;;;5013219;28;20053;-74
2023/11/17 04:37:16;;;;;;;113.57;50.17;;;3.30;99.90;;;;;;5021871;28;20124;-73
2023/11/17 04:39:42;;;;;;;118.72;51.35;;;3.40;99.90;;;;;;5030934;28;20052;-75
2023/11/17 04:42:13;;;;;;;125.63;52.00;;;3.30;99.90;;;;;;5024217;28;20075;-75
2023/11/17 04:44:46;;;;;;;122.88;52.63;;;3.30;99.90;;;;;;5026228;28;20619;-75
2023/11/17 04:47:14;;;;;;;116.13;49.80;;;3.30;99.90;;;;;;5010131;28;20037;-73
2023/11/17 04:49:45;;;;;;;119.13;50.28;;;3.30;99.90;;;;;;5024052;28;20701;-75
2023/11/17 04:52:11;;;;;;;117.28;50.92;;;3.30;99.90;;;;;;5022980;28;20543;-74
2023/11/17 04:54:55;;;;;;;122.72;52.97;;;3.30;99.90;;;;;;5024707;28;20044;-76
2023/11/17 04:57:56;;;;;;;125.30;52.55;;;3.40;99.90;;;;;;4955519;28;20629;-74
2023/11/17 05:00:23;;;;;;;110.30;51.83;;;3.50;99.90;;;;;;4935953;28;20696;-74
2023/11/17 05:02:50;;;;;;;119.95;51.92;;;3.50;99.90;;;;;;4952197;28;20052;-74
2023/11/17 05:05:16;;;;;;;119.07;52.47;;;3.50;99.90;;;;;;4953664;28;20125;-74
2023/11/17 05:07:44;;;;;;;122.82;53.20;;;3.50;99.90;;;;;;4948623;28;20144;-75
2023/11/17 05:10:13;;;;;;;114.88;53.35;;;3.40;99.90;;;;;;5010642;28;20060;-75
2023/11/17 05:12:44;;;;;;;109.25;52.17;;;3.30;99.90;;;;;;5008032;28;21255;-74
2023/11/17 05:15:13;;;;;;;105.68;51.08;;;3.30;99.90;;;;;;5004788;28;20041;-74
2023/11/17 05:17:44;;;;;;;111.70;52.00;;;3.40;99.90;;;;;;5028329;28;20037;-74
2023/11/17 05:20:13;;;;;;;106.15;51.20;;;3.40;99.90;;;;;;5021063;28;20055;-74
2023/11/17 05:22:40;;;;;;;109.40;51.33;;;3.30;99.90;;;;;;5007654;28;20037;-74
2023/11/17 05:25:08;;;;;;;107.03;50.97;;;3.30;99.90;;;;;;5024016;28;20138;-74
2023/11/17 05:27:36;;;;;;;109.95;52.00;;;3.30;99.90;;;;;;5020475;28;20045;-74
2023/11/17 05:30:04;;;;;;;104.57;49.85;;;3.40;99.90;;;;;;5047901;28;20045;-75
2023/11/17 05:32:31;;;;;;;111.88;52.08;;;3.50;99.90;;;;;;5016590;28;20095;-75
2023/11/17 05:34:58;;;;;;;109.10;50.88;;;3.40;99.90;;;;;;5004587;28;20056;-75
2023/11/17 05:37:36;;;;;;;102.65;51.20;;;3.50;99.90;;;;;;5021105;28;20063;-74
2023/11/17 05:40:05;;;;;;;114.32;54.63;;;3.50;99.90;;;;;;5025868;28;20053;-74
2023/11/17 05:42:32;;;;;;;111.72;54.13;;;3.50;99.90;;;;;;5022678;28;20083;-75
2023/11/17 05:44:59;;;;;;;113.18;54.72;;;3.60;99.90;;;;;;5019491;28;20057;-76
2023/11/17 05:47:26;;;;;;;116.65;53.53;;;3.60;99.90;;;;;;5012845;28;20045;-74
2023/11/17 05:49:55;;;;;;;109.47;54.35;;;3.70;99.90;;;;;;5024305;28;20114;-75
2023/11/17 05:52:22;;;;;;;120.97;55.20;;;3.70;99.90;;;;;;5021852;28;20041;-75
2023/11/17 05:54:51;;;;;;;110.65;55.40;;;3.70;99.90;;;;;;5012445;28;20091;-75
2023/11/17 05:57:19;;;;;;;102.88;52.15;;;3.70;99.90;;;;;;5026766;28;20384;-74
2023/11/17 05:59:53;;;;;;;103.10;51.70;;;3.70;99.90;;;;;;5023937;28;20736;-75
2023/11/17 06:02:21;;;;;;;103.47;51.95;;;3.70;99.90;;;;;;5017542;28;20719;-74
2023/11/17 06:04:48;;;;;;;102.80;53.30;;;3.70;99.90;;;;;;5011690;28;20038;-75
2023/11/17 06:07:15;;;;;;;98.45;53.13;;;3.70;99.90;;;;;;5025451;28;20046;-75
2023/11/17 06:09:43;;;;;;;105.93;54.03;;;3.60;99.90;;;;;;5022492;28;20040;-75
2023/11/17 06:12:10;;;;;;;100.32;53.35;;;3.70;99.90;;;;;;5023374;28;20412;-73
2023/11/17 06:14:37;;;;;;;104.13;53.20;;;3.70;99.90;;;;;;5009153;28;20049;-74
2023/11/17 06:17:04;;;;;;;107.55;55.60;;;3.70;99.90;;;;;;5024961;28;20049;-75
2023/11/17 06:19:33;;;;;;;100.78;53.85;;;3.70;99.90;;;;;;5028801;28;20108;-75
2023/11/17 06:21:59;;;;;;;100.45;52.95;;;3.70;99.90;;;;;;5017637;28;20114;-75
2023/11/17 06:24:26;;;;;;;93.22;49.55;;;3.70;99.90;;;;;;5019851;28;20112;-75
2023/11/17 06:26:54;;;;;;;98.18;52.28;;;3.70;99.90;;;;;;5021049;28;20052;-75
2023/11/17 06:29:24;;;;;;;101.82;55.50;;;3.80;99.90;;;;;;5028880;28;20134;-74
2023/11/17 06:31:52;;;;;;;98.53;55.28;;;3.80;99.90;;;;;;5025127;28;20111;-73
2023/11/17 06:34:19;;;;;;;101.35;54.42;;;3.80;99.90;;;;;;5020247;28;20045;-75
2023/11/17 06:36:46;;;;;;;95.82;53.90;;;3.80;99.90;;;;;;5009913;28;20049;-74
2023/11/17 06:39:14;;;;;;;93.70;53.83;;;3.80;99.90;;;;;;5009618;28;20045;-74
2023/11/17 06:41:42;;;;;;;101.47;51.42;;;3.80;99.90;;;;;;5012447;28;20049;-75
2023/11/17 06:44:13;;;;;;;92.38;53.33;;;3.80;99.90;;;;;;5015958;28;20103;-74
2023/11/17 06:46:41;;;;;;;100.25;50.92;;;3.80;99.90;;;;;;5021452;28;20077;-74
2023/11/17 06:49:09;;;;;;;89.93;51.33;;;3.70;99.90;;;;;;5026009;28;20041;-72
2023/11/17 06:51:37;;;;;;;110.50;54.35;;;3.60;99.90;;;;;;5026622;28;20041;-74
2023/11/17 06:54:08;;;;;;;106.80;54.58;;;3.50;99.90;;;;;;5024406;28;20057;-75
2023/11/17 06:56:40;;;;;;;105.10;55.75;;;3.40;99.90;;;;;;5027005;28;20045;-72
2023/11/17 06:59:15;;;;;;;112.15;56.55;;;3.40;99.90;;;;;;5023354;28;20680;-71
2023/11/17 07:01:43;;;;;;;120.07;58.78;;;3.50;99.90;;;;;;5027995;28;20044;-72
2023/11/17 07:04:13;;;;;;;117.75;56.88;;;3.60;99.90;;;;;;5023596;28;20041;-73
2023/11/17 07:06:40;;;;;;;126.93;58.00;;;3.60;99.90;;;;;;5022321;28;20037;-72
2023/11/17 07:09:23;;;;;;;120.05;58.55;;;3.60;99.90;;;;;;5030712;28;20048;-72
2023/11/17 07:11:54;;;;;;;121.15;59.83;;;3.60;99.90;;;;;;5021252;28;20056;-75
2023/11/17 07:14:25;;;;;;;124.43;59.38;;;3.60;99.90;;;;;;5028821;28;20042;-75
2023/11/17 07:16:53;;;;;;;219.27;75.03;;;3.60;99.90;;;;;;5021407;28;20042;-74
2023/11/17 07:19:20;;;;;;;143.50;63.20;;;3.60;99.90;;;;;;5022424;28;20075;-76
2023/11/17 07:21:49;;;;;;;126.43;62.35;;;3.60;99.90;;;;;;5021305;28;20549;-75
2023/11/17 07:24:18;;;;;;;132.98;65.35;;;3.60;99.90;;;;;;5005342;28;20045;-73
2023/11/17 07:26:45;;;;;;;130.30;63.53;;;3.70;99.90;;;;;;5019095;28;20049;-75
2023/11/17 07:29:13;;;;;;;128.52;63.67;;;3.70;99.90;;;;;;5024587;28;20079;-74
2023/11/17 07:31:45;;;;;;;140.82;63.35;;;3.70;99.90;;;;;;5020621;28;20035;-73
2023/11/17 07:34:16;;;;;;;132.95;61.30;;;3.70;99.90;;;;;;5027311;28;20041;-73
2023/11/17 07:36:45;;;;;;;130.32;61.08;;;3.70;99.90;;;;;;5023652;28;20053;-73
2023/11/17 07:39:13;;;;;;;132.48;64.47;;;3.70;99.90;;;;;;5028011;28;20049;-72
2023/11/17 07:41:40;;;;;;;139.00;65.43;;;3.70;99.90;;;;;;5028304;28;20044;-74
2023/11/17 07:44:08;;;;;;;144.85;66.25;;;3.70;99.90;;;;;;5022481;28;20129;-74
2023/11/17 07:46:35;;;;;;;147.88;69.32;;;3.80;99.90;;;;;;5024425;28;20102;-75
2023/11/17 07:49:05;;;;;;;192.20;74.63;;;3.80;99.90;;;;;;5030265;28;20475;-74
2023/11/17 07:51:36;;;;;;;188.02;74.97;;;3.80;99.90;;;;;;5017824;28;20449;-74
2023/11/17 07:54:16;;;;;;;212.48;80.35;;;3.80;99.90;;;;;;5026144;28;20077;-75
2023/11/17 07:56:55;;;;;;;219.18;82.53;;;3.90;99.90;;;;;;5008890;28;20052;-74
2023/11/17 07:59:25;;;;;;;249.93;86.05;;;3.90;99.90;;;;;;5029199;28;20052;-76
2023/11/17 08:01:53;;;;;;;238.18;83.97;;;3.90;99.90;;;;;;5031720;28;20046;-75
2023/11/17 08:04:22;;;;;;;230.77;85.75;;;4.00;99.90;;;;;;5018112;28;20049;-75
2023/11/17 08:07:17;;;;;;;217.75;85.63;;;4.00;99.90;;;;;;5025845;28;20033;-74
2023/11/17 08:09:44;;;;;;;214.50;84.43;;;4.00;99.90;;;;;;5016852;28;20539;-75
2023/11/17 08:12:11;;;;;;;205.65;81.05;;;4.10;99.90;;;;;;5021160;28;20096;-75
2023/11/17 08:14:38;;;;;;;188.15;78.43;;;4.20;99.90;;;;;;5010007;28;20157;-75
2023/11/17 08:17:04;;;;;;;185.60;79.35;;;4.20;99.90;;;;;;5023626;28;20042;-74
2023/11/17 08:19:35;;;;;;;162.88;73.55;;;4.30;99.90;;;;;;5007343;28;20064;-76
2023/11/17 08:22:03;;;;;;;151.32;68.95;;;4.30;99.90;;;;;;5029530;28;20463;-75
2023/11/17 08:24:31;;;;;;;161.73;72.63;;;4.40;99.90;;;;;;5023797;28;20733;-75
2023/11/17 08:26:58;;;;;;;147.15;72.30;;;4.40;99.90;;;;;;5026882;28;20029;-76
2023/11/17 08:29:25;;;;;;;128.13;66.82;;;4.50;99.90;;;;;;5027318;28;20041;-75
2023/11/17 08:31:54;;;;;;;139.05;67.63;;;4.50;99.90;;;;;;5021118;28;20695;-75
2023/11/17 08:34:25;;;;;;;120.90;63.55;;;4.50;99.90;;;;;;5027635;28;20119;-75
2023/11/17 08:36:52;;;;;;;122.28;63.30;;;4.50;99.90;;;;;;5022399;28;21709;-75
2023/11/17 08:39:25;;;;;;;126.38;67.38;;;4.60;99.90;;;;;;5006100;28;20102;-74
2023/11/17 08:41:54;;;;;;;;;;;4.70;99.90;;;;;;5012605;28;20134;-74
2023/11/17 08:44:22;;;;;;;136.10;65.43;;;4.70;99.90;;;;;;5009177;28;20505;-75
2023/11/17 08:46:51;;;;;;;113.38;60.72;;;4.80;99.90;;;;;;5020971;28;20069;-74
2023/11/17 08:49:19;;;;;;;117.78;58.50;;;4.80;99.90;;;;;;5023554;28;20128;-74
2023/11/17 08:51:47;;;;;;;107.93;59.10;;;4.80;99.90;;;;;;5010649;28;20408;-74
2023/11/17 08:54:16;;;;;;;108.40;60.38;;;4.80;99.90;;;;;;5030158;28;20055;-74
2023/11/17 08:56:47;;;;;;;109.00;57.63;;;4.80;99.90;;;;;;5021051;28;20045;-74
2023/11/17 08:59:14;;;;;;;108.13;58.78;;;4.90;99.90;;;;;;5030570;28;20646;-75
2023/11/17 09:01:42;;;;;;;101.20;58.30;;;4.80;99.90;;;;;;5022685;28;20110;-74
2023/11/17 09:04:09;;;;;;;88.82;54.38;;;4.90;99.90;;;;;;5025584;28;20047;-75
2023/11/17 09:06:36;;;;;;;92.63;50.80;;;5.00;99.90;;;;;;5024834;28;20144;-74
2023/11/17 09:09:04;;;;;;;91.38;50.65;;;5.00;99.90;;;;;;5025115;28;20691;-74
2023/11/17 09:11:50;;;;;;;82.60;48.00;;;5.00;99.90;;;;;;5022117;28;20322;-74
2023/11/17 09:14:17;;;;;;;85.47;50.90;;;4.90;99.90;;;;;;5022667;28;20049;-74
2023/11/17 09:16:44;;;;;;;89.95;50.22;;;4.90;99.90;;;;;;5023989;28;20057;-74
2023/11/17 09:19:16;;;;;;;81.72;51.63;;;5.00;99.90;;;;;;5025728;28;20507;-75
2023/11/17 09:21:47;;;;;;;75.07;50.38;;;5.00;99.90;;;;;;5019644;28;20131;-74
2023/11/17 09:24:16;;;;;;;76.75;52.15;;;5.10;99.90;;;;;;5014529;28;20136;-74
2023/11/17 09:26:49;;;;;;;74.43;51.80;;;5.20;99.90;;;;;;5024291;28;20483;-74
2023/11/17 09:29:17;;;;;;;71.60;51.40;;;5.20;99.90;;;;;;5025340;28;20047;-74
2023/11/17 09:31:44;;;;;;;78.43;54.78;;;5.30;99.90;;;;;;5010396;28;20058;-75
2023/11/17 09:34:11;;;;;;;70.95;51.70;;;5.40;99.90;;;;;;5011951;28;20043;-74
2023/11/17 09:36:40;;;;;;;66.20;50.38;;;5.60;99.90;;;;;;5022107;28;20059;-73
2023/11/17 09:39:10;;;;;;;62.13;51.67;;;5.80;99.90;;;;;;5028647;28;20561;-73
2023/11/17 09:41:38;;;;;;;59.80;49.67;;;5.70;99.90;;;;;;5019624;28;20114;-73
2023/11/17 09:44:07;;;;;;;67.72;50.20;;;5.60;99.90;;;;;;5021132;28;20049;-74
2023/11/17 09:46:45;;;;;;;83.75;58.20;;;5.80;99.90;;;;;;5018385;28;20060;-73
2023/11/17 09:49:16;;;;;;;60.83;48.83;;;6.00;99.90;;;;;;5024050;28;20651;-73
2023/11/17 09:51:44;;;;;;;48.25;43.28;;;6.10;99.90;;;;;;5010147;28;20444;-74
2023/11/17 09:54:13;;;;;;;50.20;44.67;;;6.20;99.90;;;;;;5026126;28;20065;-74
2023/11/17 09:56:43;;;;;;;45.72;41.22;;;6.20;99.90;;;;;;5018957;28;21279;-74
2023/11/17 09:59:10;;;;;;;47.45;42.75;;;6.30;99.90;;;;;;5028757;28;20037;-74
2023/11/17 10:01:38;;;;;;;48.50;43.97;;;6.30;99.90;;;;;;5021686;28;20084;-73
2023/11/17 10:04:07;;;;;;;43.45;39.35;;;6.20;99.90;;;;;;5026940;28;20037;-73
2023/11/17 10:06:41;;;;;;;42.83;38.58;;;6.30;99.90;;;;;;5024427;28;20124;-74
2023/11/17 10:09:11;;;;;;;39.88;36.20;;;6.40;99.90;;;;;;5024263;28;20059;-74
2023/11/17 10:11:44;;;;;;;40.42;36.63;;;6.50;99.90;;;;;;5003231;28;21181;-72
2023/11/17 10:14:13;;;;;;;39.75;36.20;;;6.60;99.90;;;;;;5045482;28;20425;-72
2023/11/17 10:16:42;;;;;;;38.97;35.70;;;6.70;99.90;;;;;;5020691;28;20147;-72
2023/11/17 10:19:13;;;;;;;41.75;38.38;;;7.00;99.90;;;;;;5025590;28;20048;-72
2023/11/17 10:21:45;;;;;;;43.40;39.78;;;7.00;99.90;;;;;;5026402;28;20044;-73
2023/11/17 10:24:14;;;;;;;36.78;33.67;;;6.90;99.90;;;;;;5030747;28;20505;-71
2023/11/17 10:26:41;;;;;;;36.53;33.42;;;7.00;99.90;;;;;;5023867;28;20063;-73
2023/11/17 10:29:09;;;;;;;36.20;33.30;;;7.10;99.90;;;;;;5031372;28;20459;-72
2023/11/17 10:31:42;;;;;;;36.53;33.92;;;7.20;99.90;;;;;;5020262;28;20124;-73
2023/11/17 10:34:16;;;;;;;39.53;36.25;;;7.10;99.90;;;;;;5027911;28;20053;-73
2023/11/17 10:36:57;;;;;;;37.75;34.88;;;7.10;99.90;;;;;;5025961;28;20061;-71
2023/11/17 10:39:27;;;;;;;41.22;37.72;;;7.10;99.90;;;;;;5030784;28;20045;-72
2023/11/17 10:42:16;;;;;;;42.50;38.80;;;7.30;99.90;;;;;;5015755;28;20399;-72
2023/11/17 10:44:42;;;;;;;;;;;7.30;99.90;;;;;;5044517;28;20048;-72
2023/11/17 10:47:09;;;;;;;36.40;33.85;;;7.30;99.90;;;;;;5027389;28;19998;-72
2023/11/17 10:49:36;;;;;;;37.67;34.50;;;7.20;99.90;;;;;;5028680;28;20041;-72
2023/11/17 10:52:05;;;;;;;37.05;33.83;;;7.10;99.90;;;;;;5023257;28;20138;-73
2023/11/17 10:54:33;;;;;;;37.58;34.58;;;7.20;99.90;;;;;;5025910;28;20081;-73
2023/11/17 10:57:10;;;;;;;37.13;34.03;;;7.20;99.90;;;;;;5038677;28;20581;-74
2023/11/17 10:59:37;;;;;;;36.45;33.45;;;7.20;99.90;;;;;;5026693;28;20041;-73
2023/11/17 11:02:19;;;;;;;37.35;33.90;;;7.20;99.90;;;;;;5010048;28;20068;-73
2023/11/17 11:04:50;;;;;;;36.92;33.88;;;7.20;99.90;;;;;;5023381;28;20551;-73
2023/11/17 11:07:17;;;;;;;37.92;34.65;;;7.40;99.90;;;;;;5028444;28;20073;-73
2023/11/17 11:09:49;;;;;;;36.55;33.40;;;7.10;99.90;;;;;;5027729;28;20057;-73
2023/11/17 11:12:16;;;;;;;41.22;37.80;;;7.30;99.90;;;;;;5030076;28;20625;-74
2023/11/17 11:14:53;;;;;;;39.38;36.17;;;7.60;99.90;;;;;;5012586;28;20146;-76
2023/11/17 11:17:35;;;;;;;42.78;39.17;;;7.70;99.90;;;;;;5025455;28;20045;-75
2023/11/17 11:20:06;;;;;;;40.17;36.67;;;7.80;99.90;;;;;;5027254;28;20419;-76
2023/11/17 11:22:51;;;;;;;41.10;37.67;;;7.90;99.90;;;;;;5029626;28;20140;-76
2023/11/17 11:25:19;;;;;;;39.45;36.53;;;8.00;99.90;;;;;;5020135;28;20654;-75
2023/11/17 11:28:12;;;;;;;41.35;38.08;;;7.90;99.90;;;;;;5011869;28;20448;-75
2023/11/17 11:30:41;;;;;;;38.45;35.38;;;7.80;99.90;;;;;;5027205;28;20194;-75
2023/11/17 11:33:12;;;;;;;36.85;33.65;;;7.90;99.90;;;;;;5019772;28;20132;-75
2023/11/17 11:35:40;;;;;;;36.42;33.22;;;7.80;99.90;;;;;;5025898;28;20686;-74
2023/11/17 11:38:09;;;;;;;35.47;32.78;;;7.70;99.90;;;;;;5027911;28;20046;-75
2023/11/17 11:40:37;;;;;;;38.05;35.25;;;7.50;99.90;;;;;;5015574;28;20051;-75
2023/11/17 11:43:08;;;;;;;38.17;35.22;;;7.40;99.90;;;;;;5032860;28;20663;-76
2023/11/17 11:46:04;;;;;;;36.15;33.72;;;7.40;99.90;;;;;;5023782;28;20388;-76
2023/11/17 11:48:30;;;;;;;36.97;34.20;;;7.40;99.90;;;;;;5045844;28;20048;-76
2023/11/17 11:50:58;;;;;;;37.03;34.72;;;7.30;99.90;;;;;;5026904;28;20672;-77
2023/11/17 11:53:53;;;;;;;37.72;34.85;;;7.30;99.90;;;;;;5023450;28;20057;-75
2023/11/17 11:56:21;;;;;;;;;;;7.30;99.90;;;;;;5029518;28;20045;-75
2023/11/17 11:58:50;;;;;;;34.50;32.13;;;7.30;99.90;;;;;;5025435;28;19928;-75
2023/11/17 12:01:19;;;;;;;34.05;31.85;;;7.40;99.90;;;;;;5012494;28;20141;-76
2023/11/17 12:03:59;;;;;;;35.13;32.75;;;7.50;99.90;;;;;;5007346;28;20052;-75
2023/11/17 12:06:30;;;;;;;34.47;32.28;;;7.40;99.90;;;;;;5026068;28;20037;-75
2023/11/17 12:09:08;;;;;;;35.72;33.05;;;7.40;99.90;;;;;;5016165;28;20045;-75
2023/11/17 12:11:42;;;;;;;32.10;29.98;;;7.40;99.90;;;;;;5023625;28;20059;-75
2023/11/17 12:14:15;;;;;;;32.53;30.33;;;7.20;99.90;;;;;;5013491;28;20041;-76
2023/11/17 12:16:54;;;;;;;33.13;30.95;;;7.10;99.90;;;;;;5025513;28;20115;-75
2023/11/17 12:19:25;;;;;;;33.38;31.17;;;7.00;99.90;;;;;;5034387;28;20124;-76
2023/11/17 12:21:53;;;;;;;34.30;32.10;;;7.10;99.90;;;;;;5029121;28;20148;-75
2023/11/17 12:24:23;;;;;;;31.98;30.15;;;7.20;99.90;;;;;;5028205;28;20056;-76
2023/11/17 12:26:53;;;;;;;32.25;30.17;;;7.10;99.90;;;;;;5024052;28;20056;-75
2023/11/17 12:29:31;;;;;;;31.08;28.92;;;7.20;99.90;;;;;;5029717;28;20112;-75
2023/11/17 12:32:06;;;;;;;31.15;29.15;;;7.10;99.90;;;;;;5025869;28;20117;-76
2023/11/17 12:34:42;;;;;;;30.42;28.42;;;7.10;99.90;;;;;;5026668;28;20144;-75
2023/11/17 12:37:10;;;;;;;30.10;28.35;;;7.10;99.90;;;;;;5037148;28;20144;-75
2023/11/17 12:39:41;;;;;;;30.13;28.13;;;7.10;99.90;;;;;;5032479;28;20532;-75
2023/11/17 12:42:17;;;;;;;30.55;28.30;;;7.20;99.90;;;;;;5030663;28;20045;-75
2023/11/17 12:44:44;;;;;;;31.65;29.63;;;7.20;99.90;;;;;;5026966;28;20045;-75
2023/11/17 12:47:12;;;;;;;32.20;30.17;;;7.20;99.90;;;;;;5027306;28;20040;-76
2023/11/17 12:49:56;;;;;;;34.13;31.80;;;7.10;99.90;;;;;;5029348;28;20067;-75
2023/11/17 12:52:23;;;;;;;35.05;32.47;;;7.10;99.90;;;;;;5029492;28;20051;-76